EGGD/BRS METAR and TAF weather

Enter ICAO airport designator
Station Type Date Time Source
EGGD METAR 2019/06/24 23:20 UTC NOAA

EGGD 242320Z AUTO 24005KT 1100 R27/P1500 BR OVC001 14/14 Q1018


Station Type Date Time Source
EGGD Decoded METAR 2019/06/24 23:20 UTC NOAA

Bristol / Lulsgate , United Kingdom (EGGD) 51-23N 002-43W
Jun 24, 2019 - 07:20 PM EDT / 2019.06.24 2320 UTC
Wind: from the WSW (240 degrees) at 6 MPH (5 KT):0
Visibility: less than 1 mile:0
Sky conditions: overcast
Weather: mist
Temperature: 57 F (14 C)
Dew Point: 57 F (14 C)
Relative Humidity: 100%
Pressure (altimeter): 30.06 in. Hg (1018 hPa)
ob: EGGD 242320Z AUTO 24005KT 1100 R27/P1500 BR OVC001 14/14 Q1018
cycle: 23

Station Type Date Time Source
EGGD TAF 2019/06/24 23:06 UTC NOAA

TAF
AMD TAF
AMD EGGD 242303Z 2423/2518 22003KT 3000 BR BKN003
TEMPO 2423/2512 6000 RA SHRA BKN010 PROB40
TEMPO 2423/2509 0300 FG OVC001
BECMG 2509/2512 9999 NSW SCT010

Example: see airport list